sensor_id;sensor_type;location;lat;lon;timestamp;temperature;humidity
27823;DHT22;29019;47.630;8.262;2023-08-06T00:01:08;23.00;55.20
27823;DHT22;29019;47.630;8.262;2023-08-06T00:05:10;23.00;55.30
27823;DHT22;29019;47.630;8.262;2023-08-06T00:09:12;23.00;55.50
27823;DHT22;29019;47.630;8.262;2023-08-06T00:13:14;23.00;55.60
27823;DHT22;29019;47.630;8.262;2023-08-06T00:17:16;23.00;55.90
27823;DHT22;29019;47.630;8.262;2023-08-06T00:21:18;23.00;56.00
27823;DHT22;29019;47.630;8.262;2023-08-06T00:25:19;23.00;56.20
27823;DHT22;29019;47.630;8.262;2023-08-06T00:29:21;23.00;56.30
27823;DHT22;29019;47.630;8.262;2023-08-06T00:33:23;23.00;56.30
27823;DHT22;29019;47.630;8.262;2023-08-06T00:37:23;23.00;56.40
27823;DHT22;29019;47.630;8.262;2023-08-06T00:41:25;23.00;56.60
27823;DHT22;29019;47.630;8.262;2023-08-06T00:45:26;23.00;56.60
27823;DHT22;29019;47.630;8.262;2023-08-06T00:49:29;22.90;56.70
27823;DHT22;29019;47.630;8.262;2023-08-06T00:53:30;22.90;56.70
27823;DHT22;29019;47.630;8.262;2023-08-06T00:57:30;23.00;56.90
27823;DHT22;29019;47.630;8.262;2023-08-06T01:01:31;22.90;56.90
27823;DHT22;29019;47.630;8.262;2023-08-06T01:05:31;22.90;56.90
27823;DHT22;29019;47.630;8.262;2023-08-06T01:09:40;22.90;57.00
27823;DHT22;29019;47.630;8.262;2023-08-06T01:13:46;22.90;57.00
27823;DHT22;29019;47.630;8.262;2023-08-06T01:17:47;22.90;57.10
27823;DHT22;29019;47.630;8.262;2023-08-06T01:21:48;22.90;57.10
27823;DHT22;29019;47.630;8.262;2023-08-06T01:25:50;22.90;57.20
27823;DHT22;29019;47.630;8.262;2023-08-06T01:29:57;22.90;57.20
27823;DHT22;29019;47.630;8.262;2023-08-06T01:34:00;22.90;57.30
27823;DHT22;29019;47.630;8.262;2023-08-06T01:38:02;22.90;57.40
27823;DHT22;29019;47.630;8.262;2023-08-06T01:42:03;22.90;57.50
27823;DHT22;29019;47.630;8.262;2023-08-06T01:46:03;22.90;57.50
27823;DHT22;29019;47.630;8.262;2023-08-06T01:50:04;22.90;57.40
27823;DHT22;29019;47.630;8.262;2023-08-06T01:54:05;22.90;57.50
27823;DHT22;29019;47.630;8.262;2023-08-06T01:58:05;22.90;57.50
27823;DHT22;29019;47.630;8.262;2023-08-06T02:02:06;22.90;57.60
27823;DHT22;29019;47.630;8.262;2023-08-06T02:06:06;22.90;57.60
27823;DHT22;29019;47.630;8.262;2023-08-06T02:10:07;22.90;57.60
27823;DHT22;29019;47.630;8.262;2023-08-06T02:14:08;22.90;57.70
27823;DHT22;29019;47.630;8.262;2023-08-06T02:18:08;22.90;57.60
27823;DHT22;29019;47.630;8.262;2023-08-06T02:22:09;22.90;57.70
27823;DHT22;29019;47.630;8.262;2023-08-06T02:26:09;22.90;57.70
27823;DHT22;29019;47.630;8.262;2023-08-06T02:30:10;22.90;57.70
27823;DHT22;29019;47.630;8.262;2023-08-06T02:34:10;22.90;57.70
27823;DHT22;29019;47.630;8.262;2023-08-06T02:38:11;22.90;57.80
27823;DHT22;29019;47.630;8.262;2023-08-06T02:42:11;22.90;57.80
27823;DHT22;29019;47.630;8.262;2023-08-06T02:46:12;22.90;57.80
27823;DHT22;29019;47.630;8.262;2023-08-06T02:50:12;22.90;57.80
27823;DHT22;29019;47.630;8.262;2023-08-06T02:54:13;22.80;57.80
27823;DHT22;29019;47.630;8.262;2023-08-06T02:58:14;22.80;57.90
27823;DHT22;29019;47.630;8.262;2023-08-06T03:02:15;22.90;58.00
27823;DHT22;29019;47.630;8.262;2023-08-06T03:06:15;22.80;58.00
27823;DHT22;29019;47.630;8.262;2023-08-06T03:10:16;22.80;57.90
27823;DHT22;29019;47.630;8.262;2023-08-06T03:14:16;22.80;58.00
27823;DHT22;29019;47.630;8.262;2023-08-06T03:18:17;22.90;58.00
27823;DHT22;29019;47.630;8.262;2023-08-06T03:22:17;22.80;58.00
27823;DHT22;29019;47.630;8.262;2023-08-06T03:26:18;22.80;58.00
27823;DHT22;29019;47.630;8.262;2023-08-06T03:30:18;22.80;58.00
27823;DHT22;29019;47.630;8.262;2023-08-06T03:34:19;22.80;58.00
27823;DHT22;29019;47.630;8.262;2023-08-06T03:38:19;22.80;58.00
27823;DHT22;29019;47.630;8.262;2023-08-06T03:42:20;22.80;58.00
27823;DHT22;29019;47.630;8.262;2023-08-06T03:46:21;22.80;58.00
27823;DHT22;29019;47.630;8.262;2023-08-06T03:50:21;22.80;58.00
27823;DHT22;29019;47.630;8.262;2023-08-06T03:54:22;22.80;58.10
27823;DHT22;29019;47.630;8.262;2023-08-06T03:58:22;22.80;58.60
27823;DHT22;29019;47.630;8.262;2023-08-06T04:02:23;22.80;58.10
27823;DHT22;29019;47.630;8.262;2023-08-06T04:06:23;22.80;58.30
27823;DHT22;29019;47.630;8.262;2023-08-06T04:10:24;22.80;58.20
27823;DHT22;29019;47.630;8.262;2023-08-06T04:14:26;22.80;58.30
27823;DHT22;29019;47.630;8.262;2023-08-06T04:18:26;22.80;58.20
27823;DHT22;29019;47.630;8.262;2023-08-06T04:22:27;22.80;58.20
27823;DHT22;29019;47.630;8.262;2023-08-06T04:26:27;22.80;58.20
27823;DHT22;29019;47.630;8.262;2023-08-06T04:30:28;22.80;58.30
27823;DHT22;29019;47.630;8.262;2023-08-06T04:34:28;22.80;58.40
27823;DHT22;29019;47.630;8.262;2023-08-06T04:38:29;22.80;58.30
27823;DHT22;29019;47.630;8.262;2023-08-06T04:42:29;22.80;58.30
27823;DHT22;29019;47.630;8.262;2023-08-06T04:46:30;22.80;58.30
27823;DHT22;29019;47.630;8.262;2023-08-06T04:50:30;22.70;58.30
27823;DHT22;29019;47.630;8.262;2023-08-06T04:54:31;22.70;58.30
27823;DHT22;29019;47.630;8.262;2023-08-06T04:58:31;22.70;58.30
27823;DHT22;29019;47.630;8.262;2023-08-06T05:02:32;22.70;58.30
27823;DHT22;29019;47.630;8.262;2023-08-06T05:06:34;22.80;58.50
27823;DHT22;29019;47.630;8.262;2023-08-06T05:10:35;22.70;58.40
27823;DHT22;29019;47.630;8.262;2023-08-06T05:14:36;22.70;58.30
27823;DHT22;29019;47.630;8.262;2023-08-06T05:18:36;22.70;58.40
27823;DHT22;29019;47.630;8.262;2023-08-06T05:22:38;22.80;58.40
27823;DHT22;29019;47.630;8.262;2023-08-06T05:26:38;22.70;58.50
27823;DHT22;29019;47.630;8.262;2023-08-06T05:30:39;22.70;58.50
27823;DHT22;29019;47.630;8.262;2023-08-06T05:34:40;22.70;58.50
27823;DHT22;29019;47.630;8.262;2023-08-06T05:38:41;22.80;58.60
27823;DHT22;29019;47.630;8.262;2023-08-06T05:42:42;22.80;58.50
27823;DHT22;29019;47.630;8.262;2023-08-06T05:46:43;22.70;58.50
27823;DHT22;29019;47.630;8.262;2023-08-06T05:50:43;22.70;58.50
27823;DHT22;29019;47.630;8.262;2023-08-06T05:54:44;22.70;58.50
27823;DHT22;29019;47.630;8.262;2023-08-06T05:58:44;22.70;58.50
27823;DHT22;29019;47.630;8.262;2023-08-06T06:02:46;22.70;58.50
27823;DHT22;29019;47.630;8.262;2023-08-06T06:06:47;22.70;58.50
27823;DHT22;29019;47.630;8.262;2023-08-06T06:10:48;22.70;58.50
27823;DHT22;29019;47.630;8.262;2023-08-06T06:14:48;22.70;58.60
27823;DHT22;29019;47.630;8.262;2023-08-06T06:18:49;22.70;58.60
27823;DHT22;29019;47.630;8.262;2023-08-06T06:22:49;22.70;58.60
27823;DHT22;29019;47.630;8.262;2023-08-06T06:26:50;22.70;58.60
27823;DHT22;29019;47.630;8.262;2023-08-06T06:30:51;22.70;58.60
27823;DHT22;29019;47.630;8.262;2023-08-06T06:34:51;22.70;58.60
27823;DHT22;29019;47.630;8.262;2023-08-06T06:38:52;22.70;58.70
27823;DHT22;29019;47.630;8.262;2023-08-06T06:42:52;22.70;58.60
27823;DHT22;29019;47.630;8.262;2023-08-06T06:46:53;22.70;58.70
27823;DHT22;29019;47.630;8.262;2023-08-06T06:50:54;22.70;58.70
27823;DHT22;29019;47.630;8.262;2023-08-06T06:54:54;22.70;58.70
27823;DHT22;29019;47.630;8.262;2023-08-06T06:58:55;22.70;58.70
27823;DHT22;29019;47.630;8.262;2023-08-06T07:02:55;22.70;58.70
27823;DHT22;29019;47.630;8.262;2023-08-06T07:06:56;22.70;58.70
27823;DHT22;29019;47.630;8.262;2023-08-06T07:11:00;22.70;58.70
27823;DHT22;29019;47.630;8.262;2023-08-06T07:15:01;22.70;58.70
27823;DHT22;29019;47.630;8.262;2023-08-06T07:19:01;22.70;58.70
27823;DHT22;29019;47.630;8.262;2023-08-06T07:23:02;22.70;58.70
27823;DHT22;29019;47.630;8.262;2023-08-06T07:27:03;22.70;58.70
27823;DHT22;29019;47.630;8.262;2023-08-06T07:31:03;22.70;58.70
27823;DHT22;29019;47.630;8.262;2023-08-06T07:35:04;22.70;58.80
27823;DHT22;29019;47.630;8.262;2023-08-06T07:39:04;22.70;58.70
27823;DHT22;29019;47.630;8.262;2023-08-06T07:43:06;22.70;58.80
27823;DHT22;29019;47.630;8.262;2023-08-06T07:47:07;22.70;58.70
27823;DHT22;29019;47.630;8.262;2023-08-06T07:51:07;22.70;58.80
27823;DHT22;29019;47.630;8.262;2023-08-06T07:55:08;22.70;58.80
27823;DHT22;29019;47.630;8.262;2023-08-06T07:59:08;22.70;58.80
27823;DHT22;29019;47.630;8.262;2023-08-06T08:03:09;22.60;58.70
27823;DHT22;29019;47.630;8.262;2023-08-06T08:07:10;22.60;58.80
27823;DHT22;29019;47.630;8.262;2023-08-06T08:11:11;22.70;58.80
27823;DHT22;29019;47.630;8.262;2023-08-06T08:15:11;22.60;58.80
27823;DHT22;29019;47.630;8.262;2023-08-06T08:19:12;22.70;58.80
27823;DHT22;29019;47.630;8.262;2023-08-06T08:23:12;22.70;58.80
27823;DHT22;29019;47.630;8.262;2023-08-06T08:27:13;22.70;58.80
27823;DHT22;29019;47.630;8.262;2023-08-06T08:31:14;22.70;58.90
27823;DHT22;29019;47.630;8.262;2023-08-06T08:35:15;22.60;58.80
27823;DHT22;29019;47.630;8.262;2023-08-06T08:39:16;22.70;58.90
27823;DHT22;29019;47.630;8.262;2023-08-06T08:43:17;22.60;58.80
27823;DHT22;29019;47.630;8.262;2023-08-06T08:47:18;22.70;58.90
27823;DHT22;29019;47.630;8.262;2023-08-06T08:51:18;22.60;58.80
27823;DHT22;29019;47.630;8.262;2023-08-06T08:55:19;22.70;58.90
27823;DHT22;29019;47.630;8.262;2023-08-06T08:59:21;22.70;58.90
27823;DHT22;29019;47.630;8.262;2023-08-06T09:03:22;22.70;58.90
27823;DHT22;29019;47.630;8.262;2023-08-06T09:07:22;22.70;58.90
27823;DHT22;29019;47.630;8.262;2023-08-06T09:11:24;22.60;58.90
27823;DHT22;29019;47.630;8.262;2023-08-06T09:15:25;22.60;58.90
27823;DHT22;29019;47.630;8.262;2023-08-06T09:19:25;22.60;58.90
27823;DHT22;29019;47.630;8.262;2023-08-06T09:23:28;22.70;58.90
27823;DHT22;29019;47.630;8.262;2023-08-06T09:27:29;22.70;58.90
27823;DHT22;29019;47.630;8.262;2023-08-06T09:31:36;22.60;58.90
27823;DHT22;29019;47.630;8.262;2023-08-06T09:35:40;22.60;58.90
27823;DHT22;29019;47.630;8.262;2023-08-06T09:39:40;22.60;58.90
27823;DHT22;29019;47.630;8.262;2023-08-06T09:43:42;22.60;58.90
27823;DHT22;29019;47.630;8.262;2023-08-06T09:47:43;22.60;58.90
27823;DHT22;29019;47.630;8.262;2023-08-06T09:51:43;22.70;59.00
27823;DHT22;29019;47.630;8.262;2023-08-06T09:55:45;22.60;58.90
27823;DHT22;29019;47.630;8.262;2023-08-06T09:59:46;22.60;59.00
27823;DHT22;29019;47.630;8.262;2023-08-06T10:03:47;22.60;59.00
27823;DHT22;29019;47.630;8.262;2023-08-06T10:07:49;22.60;59.00
27823;DHT22;29019;47.630;8.262;2023-08-06T10:11:53;22.60;59.00
27823;DHT22;29019;47.630;8.262;2023-08-06T10:15:55;22.70;59.00
27823;DHT22;29019;47.630;8.262;2023-08-06T10:19:55;22.60;59.00
27823;DHT22;29019;47.630;8.262;2023-08-06T10:23:56;22.60;59.00
27823;DHT22;29019;47.630;8.262;2023-08-06T10:27:57;22.60;59.00
27823;DHT22;29019;47.630;8.262;2023-08-06T10:32:01;22.60;59.00
27823;DHT22;29019;47.630;8.262;2023-08-06T10:36:01;22.60;59.00
27823;DHT22;29019;47.630;8.262;2023-08-06T10:40:06;22.60;59.00
27823;DHT22;29019;47.630;8.262;2023-08-06T10:44:07;22.60;59.00
27823;DHT22;29019;47.630;8.262;2023-08-06T10:48:08;22.60;59.00
27823;DHT22;29019;47.630;8.262;2023-08-06T10:52:09;22.60;59.00
27823;DHT22;29019;47.630;8.262;2023-08-06T10:56:27;22.60;59.00
27823;DHT22;29019;47.630;8.262;2023-08-06T11:00:28;22.60;59.00
27823;DHT22;29019;47.630;8.262;2023-08-06T11:04:30;22.60;59.00
27823;DHT22;29019;47.630;8.262;2023-08-06T11:08:34;22.60;59.00
27823;DHT22;29019;47.630;8.262;2023-08-06T11:12:35;22.60;59.00
27823;DHT22;29019;47.630;8.262;2023-08-06T11:16:36;22.60;59.00
27823;DHT22;29019;47.630;8.262;2023-08-06T11:20:37;22.60;59.10
27823;DHT22;29019;47.630;8.262;2023-08-06T11:24:37;22.60;59.10
27823;DHT22;29019;47.630;8.262;2023-08-06T11:28:38;22.60;59.10
27823;DHT22;29019;47.630;8.262;2023-08-06T11:32:45;22.60;59.10
27823;DHT22;29019;47.630;8.262;2023-08-06T11:36:47;22.60;59.10
27823;DHT22;29019;47.630;8.262;2023-08-06T11:40:47;22.60;59.10
27823;DHT22;29019;47.630;8.262;2023-08-06T11:44:48;22.60;59.10
27823;DHT22;29019;47.630;8.262;2023-08-06T11:48:52;22.60;59.10
27823;DHT22;29019;47.630;8.262;2023-08-06T11:52:57;22.60;59.10
27823;DHT22;29019;47.630;8.262;2023-08-06T11:56:58;22.60;59.10
27823;DHT22;29019;47.630;8.262;2023-08-06T12:00:58;22.60;59.00
27823;DHT22;29019;47.630;8.262;2023-08-06T12:05:03;22.60;59.00
27823;DHT22;29019;47.630;8.262;2023-08-06T12:09:05;22.60;59.00
27823;DHT22;29019;47.630;8.262;2023-08-06T12:13:05;22.60;59.10
27823;DHT22;29019;47.630;8.262;2023-08-06T12:17:06;22.60;59.10
27823;DHT22;29019;47.630;8.262;2023-08-06T12:21:06;22.60;59.10
27823;DHT22;29019;47.630;8.262;2023-08-06T12:25:07;22.60;59.10
27823;DHT22;29019;47.630;8.262;2023-08-06T12:29:08;22.60;59.10
27823;DHT22;29019;47.630;8.262;2023-08-06T12:33:09;22.60;59.10
27823;DHT22;29019;47.630;8.262;2023-08-06T12:37:10;22.60;59.10
27823;DHT22;29019;47.630;8.262;2023-08-06T12:41:10;22.60;59.10
27823;DHT22;29019;47.630;8.262;2023-08-06T12:45:11;22.60;59.10
27823;DHT22;29019;47.630;8.262;2023-08-06T12:49:11;22.60;59.20
27823;DHT22;29019;47.630;8.262;2023-08-06T12:53:12;22.60;59.20
27823;DHT22;29019;47.630;8.262;2023-08-06T12:57:12;22.50;59.10
27823;DHT22;29019;47.630;8.262;2023-08-06T13:01:13;22.60;59.20
27823;DHT22;29019;47.630;8.262;2023-08-06T13:05:13;22.60;59.20
27823;DHT22;29019;47.630;8.262;2023-08-06T13:09:15;22.50;59.70
27823;DHT22;29019;47.630;8.262;2023-08-06T13:13:15;22.40;58.80
27823;DHT22;29019;47.630;8.262;2023-08-06T13:17:16;22.40;57.70
27823;DHT22;29019;47.630;8.262;2023-08-06T13:21:16;22.40;57.60
27823;DHT22;29019;47.630;8.262;2023-08-06T13:25:17;22.40;57.30
27823;DHT22;29019;47.630;8.262;2023-08-06T13:29:18;22.40;56.30
27823;DHT22;29019;47.630;8.262;2023-08-06T13:33:18;22.50;56.70
27823;DHT22;29019;47.630;8.262;2023-08-06T13:37:21;22.50;56.50
27823;DHT22;29019;47.630;8.262;2023-08-06T13:41:21;22.50;56.10
27823;DHT22;29019;47.630;8.262;2023-08-06T13:45:22;22.50;55.90
27823;DHT22;29019;47.630;8.262;2023-08-06T13:49:22;22.50;55.80
27823;DHT22;29019;47.630;8.262;2023-08-06T13:53:23;22.50;55.20
27823;DHT22;29019;47.630;8.262;2023-08-06T13:57:25;22.50;55.00
27823;DHT22;29019;47.630;8.262;2023-08-06T14:01:26;22.50;55.20
27823;DHT22;29019;47.630;8.262;2023-08-06T14:05:26;22.50;54.80
27823;DHT22;29019;47.630;8.262;2023-08-06T14:09:27;22.60;55.10
27823;DHT22;29019;47.630;8.262;2023-08-06T14:13:28;22.60;54.80
27823;DHT22;29019;47.630;8.262;2023-08-06T14:17:28;22.60;54.50
27823;DHT22;29019;47.630;8.262;2023-08-06T14:21:29;22.50;54.50
27823;DHT22;29019;47.630;8.262;2023-08-06T14:25:30;22.50;54.20
27823;DHT22;29019;47.630;8.262;2023-08-06T14:29:30;22.50;53.90
27823;DHT22;29019;47.630;8.262;2023-08-06T14:33:31;22.50;53.50
27823;DHT22;29019;47.630;8.262;2023-08-06T14:37:31;22.50;53.40
27823;DHT22;29019;47.630;8.262;2023-08-06T14:41:32;22.50;53.30
27823;DHT22;29019;47.630;8.262;2023-08-06T14:45:32;22.50;53.30
27823;DHT22;29019;47.630;8.262;2023-08-06T14:49:33;22.50;53.10
27823;DHT22;29019;47.630;8.262;2023-08-06T14:53:34;22.50;53.70
27823;DHT22;29019;47.630;8.262;2023-08-06T14:57:34;22.50;53.30
27823;DHT22;29019;47.630;8.262;2023-08-06T15:01:35;22.50;53.20
27823;DHT22;29019;47.630;8.262;2023-08-06T15:05:35;22.50;53.00
27823;DHT22;29019;47.630;8.262;2023-08-06T15:09:36;22.50;52.60
27823;DHT22;29019;47.630;8.262;2023-08-06T15:13:36;22.50;52.30
27823;DHT22;29019;47.630;8.262;2023-08-06T15:17:37;22.50;52.30
27823;DHT22;29019;47.630;8.262;2023-08-06T15:21:37;22.60;52.60
27823;DHT22;29019;47.630;8.262;2023-08-06T15:25:38;22.60;52.60
27823;DHT22;29019;47.630;8.262;2023-08-06T15:29:38;22.60;52.60
27823;DHT22;29019;47.630;8.262;2023-08-06T15:33:39;22.60;52.50
27823;DHT22;29019;47.630;8.262;2023-08-06T15:37:39;22.70;52.90
27823;DHT22;29019;47.630;8.262;2023-08-06T15:41:40;22.70;53.10
27823;DHT22;29019;47.630;8.262;2023-08-06T15:45:40;22.70;53.10
27823;DHT22;29019;47.630;8.262;2023-08-06T15:49:41;22.70;53.40
27823;DHT22;29019;47.630;8.262;2023-08-06T15:53:41;22.70;53.50
27823;DHT22;29019;47.630;8.262;2023-08-06T15:57:42;22.70;53.60
27823;DHT22;29019;47.630;8.262;2023-08-06T16:01:43;22.70;53.80
27823;DHT22;29019;47.630;8.262;2023-08-06T16:05:44;22.70;53.80
27823;DHT22;29019;47.630;8.262;2023-08-06T16:09:45;22.70;54.00
27823;DHT22;29019;47.630;8.262;2023-08-06T16:13:45;22.70;53.90
27823;DHT22;29019;47.630;8.262;2023-08-06T16:17:46;22.70;54.00
27823;DHT22;29019;47.630;8.262;2023-08-06T16:21:46;22.70;54.20
27823;DHT22;29019;47.630;8.262;2023-08-06T16:25:47;22.80;54.30
27823;DHT22;29019;47.630;8.262;2023-08-06T16:29:47;22.80;54.30
27823;DHT22;29019;47.630;8.262;2023-08-06T16:33:49;22.80;54.40
27823;DHT22;29019;47.630;8.262;2023-08-06T16:37:49;22.80;54.40
27823;DHT22;29019;47.630;8.262;2023-08-06T16:41:50;22.80;54.50
27823;DHT22;29019;47.630;8.262;2023-08-06T16:45:54;22.80;54.60
27823;DHT22;29019;47.630;8.262;2023-08-06T16:49:54;22.80;54.70
27823;DHT22;29019;47.630;8.262;2023-08-06T16:53:55;22.70;54.80
27823;DHT22;29019;47.630;8.262;2023-08-06T16:57:55;22.70;55.00
27823;DHT22;29019;47.630;8.262;2023-08-06T17:01:56;22.70;55.00
27823;DHT22;29019;47.630;8.262;2023-08-06T17:05:57;22.80;55.00
27823;DHT22;29019;47.630;8.262;2023-08-06T17:09:58;22.70;55.00
27823;DHT22;29019;47.630;8.262;2023-08-06T17:13:59;22.70;55.20
27823;DHT22;29019;47.630;8.262;2023-08-06T17:17:59;22.70;55.20
27823;DHT22;29019;47.630;8.262;2023-08-06T17:22:00;22.70;55.10
27823;DHT22;29019;47.630;8.262;2023-08-06T17:26:01;22.70;55.50
27823;DHT22;29019;47.630;8.262;2023-08-06T17:30:02;22.70;55.40
27823;DHT22;29019;47.630;8.262;2023-08-06T17:34:02;22.70;55.30
27823;DHT22;29019;47.630;8.262;2023-08-06T17:38:03;22.80;55.60
27823;DHT22;29019;47.630;8.262;2023-08-06T17:42:03;22.70;55.80
27823;DHT22;29019;47.630;8.262;2023-08-06T17:46:04;22.80;55.50
27823;DHT22;29019;47.630;8.262;2023-08-06T17:50:05;22.80;55.60
27823;DHT22;29019;47.630;8.262;2023-08-06T17:54:06;22.80;55.80
27823;DHT22;29019;47.630;8.262;2023-08-06T17:58:06;22.70;55.90
27823;DHT22;29019;47.630;8.262;2023-08-06T18:02:07;22.70;55.90
27823;DHT22;29019;47.630;8.262;2023-08-06T18:06:07;22.80;55.90
27823;DHT22;29019;47.630;8.262;2023-08-06T18:10:08;22.70;55.80
27823;DHT22;29019;47.630;8.262;2023-08-06T18:14:09;22.80;56.00
27823;DHT22;29019;47.630;8.262;2023-08-06T18:18:09;22.70;56.00
27823;DHT22;29019;47.630;8.262;2023-08-06T18:22:10;22.70;56.10
27823;DHT22;29019;47.630;8.262;2023-08-06T18:26:11;22.70;56.30
27823;DHT22;29019;47.630;8.262;2023-08-06T18:30:11;22.70;56.20
27823;DHT22;29019;47.630;8.262;2023-08-06T18:34:12;22.70;56.20
27823;DHT22;29019;47.630;8.262;2023-08-06T18:38:12;22.70;56.40
27823;DHT22;29019;47.630;8.262;2023-08-06T18:42:13;22.80;56.30
27823;DHT22;29019;47.630;8.262;2023-08-06T18:46:14;22.80;56.40
27823;DHT22;29019;47.630;8.262;2023-08-06T18:50:14;22.80;56.30
27823;DHT22;29019;47.630;8.262;2023-08-06T18:54:15;22.80;56.50
27823;DHT22;29019;47.630;8.262;2023-08-06T18:58:15;22.80;56.50
27823;DHT22;29019;47.630;8.262;2023-08-06T19:02:16;22.80;56.50
27823;DHT22;29019;47.630;8.262;2023-08-06T19:06:17;22.80;56.70
27823;DHT22;29019;47.630;8.262;2023-08-06T19:10:17;22.80;56.80
27823;DHT22;29019;47.630;8.262;2023-08-06T19:14:18;22.80;57.00
27823;DHT22;29019;47.630;8.262;2023-08-06T19:18:18;22.80;57.10
27823;DHT22;29019;47.630;8.262;2023-08-06T19:22:19;22.80;56.90
27823;DHT22;29019;47.630;8.262;2023-08-06T19:26:19;22.80;56.90
27823;DHT22;29019;47.630;8.262;2023-08-06T19:30:20;22.80;57.00
27823;DHT22;29019;47.630;8.262;2023-08-06T19:34:20;22.80;57.20
27823;DHT22;29019;47.630;8.262;2023-08-06T19:38:22;22.80;56.90
27823;DHT22;29019;47.630;8.262;2023-08-06T19:42:23;22.90;56.90
27823;DHT22;29019;47.630;8.262;2023-08-06T19:46:23;22.90;56.70
27823;DHT22;29019;47.630;8.262;2023-08-06T19:50:24;22.90;56.80
27823;DHT22;29019;47.630;8.262;2023-08-06T19:54:24;22.90;56.90
27823;DHT22;29019;47.630;8.262;2023-08-06T19:58:29;23.00;57.10
27823;DHT22;29019;47.630;8.262;2023-08-06T20:02:30;23.00;56.90
27823;DHT22;29019;47.630;8.262;2023-08-06T20:06:30;22.90;56.90
27823;DHT22;29019;47.630;8.262;2023-08-06T20:10:31;23.00;57.10
27823;DHT22;29019;47.630;8.262;2023-08-06T20:14:31;22.90;56.90
27823;DHT22;29019;47.630;8.262;2023-08-06T20:18:32;22.90;57.00
27823;DHT22;29019;47.630;8.262;2023-08-06T20:22:32;22.90;57.30
27823;DHT22;29019;47.630;8.262;2023-08-06T20:26:33;22.90;56.90
27823;DHT22;29019;47.630;8.262;2023-08-06T20:30:34;23.00;56.90
27823;DHT22;29019;47.630;8.262;2023-08-06T20:34:34;23.00;56.90
27823;DHT22;29019;47.630;8.262;2023-08-06T20:38:35;23.00;57.00
27823;DHT22;29019;47.630;8.262;2023-08-06T20:42:35;23.00;57.20
27823;DHT22;29019;47.630;8.262;2023-08-06T20:46:36;22.90;57.10
27823;DHT22;29019;47.630;8.262;2023-08-06T20:50:40;22.90;57.20
27823;DHT22;29019;47.630;8.262;2023-08-06T20:54:41;22.90;57.50
27823;DHT22;29019;47.630;8.262;2023-08-06T20:58:41;22.90;57.30
27823;DHT22;29019;47.630;8.262;2023-08-06T21:02:42;22.90;57.50
27823;DHT22;29019;47.630;8.262;2023-08-06T21:06:42;22.90;57.50
27823;DHT22;29019;47.630;8.262;2023-08-06T21:10:43;23.00;57.80
27823;DHT22;29019;47.630;8.262;2023-08-06T21:14:43;23.00;59.00
27823;DHT22;29019;47.630;8.262;2023-08-06T21:18:44;23.00;59.60
27823;DHT22;29019;47.630;8.262;2023-08-06T21:22:44;23.00;60.10
27823;DHT22;29019;47.630;8.262;2023-08-06T21:26:45;23.00;60.40
27823;DHT22;29019;47.630;8.262;2023-08-06T21:30:52;23.00;60.00
27823;DHT22;29019;47.630;8.262;2023-08-06T21:34:53;23.00;59.80
27823;DHT22;29019;47.630;8.262;2023-08-06T21:38:53;23.00;59.60
27823;DHT22;29019;47.630;8.262;2023-08-06T21:42:54;23.00;59.40
27823;DHT22;29019;47.630;8.262;2023-08-06T21:46:55;23.00;59.50
27823;DHT22;29019;47.630;8.262;2023-08-06T21:50:59;23.00;59.30
27823;DHT22;29019;47.630;8.262;2023-08-06T21:55:00;23.00;59.20
27823;DHT22;29019;47.630;8.262;2023-08-06T21:59:00;23.00;59.40
27823;DHT22;29019;47.630;8.262;2023-08-06T22:03:01;23.00;59.30
27823;DHT22;29019;47.630;8.262;2023-08-06T22:07:01;23.00;59.40
27823;DHT22;29019;47.630;8.262;2023-08-06T22:11:02;23.00;59.20
27823;DHT22;29019;47.630;8.262;2023-08-06T22:15:03;23.00;59.10
27823;DHT22;29019;47.630;8.262;2023-08-06T22:19:04;23.00;59.30
27823;DHT22;29019;47.630;8.262;2023-08-06T22:23:04;23.00;59.30
27823;DHT22;29019;47.630;8.262;2023-08-06T22:27:05;22.90;59.10
27823;DHT22;29019;47.630;8.262;2023-08-06T22:31:05;23.00;59.00
27823;DHT22;29019;47.630;8.262;2023-08-06T22:35:06;22.90;59.00
27823;DHT22;29019;47.630;8.262;2023-08-06T22:39:06;22.90;58.90
27823;DHT22;29019;47.630;8.262;2023-08-06T22:43:07;23.00;59.20
27823;DHT22;29019;47.630;8.262;2023-08-06T22:47:08;23.00;60.60
27823;DHT22;29019;47.630;8.262;2023-08-06T22:51:08;23.10;61.10
27823;DHT22;29019;47.630;8.262;2023-08-06T22:55:09;23.10;60.70
27823;DHT22;29019;47.630;8.262;2023-08-06T22:59:09;23.10;60.20
27823;DHT22;29019;47.630;8.262;2023-08-06T23:03:10;23.10;60.00
27823;DHT22;29019;47.630;8.262;2023-08-06T23:07:11;23.10;59.80
27823;DHT22;29019;47.630;8.262;2023-08-06T23:11:11;23.10;59.60
27823;DHT22;29019;47.630;8.262;2023-08-06T23:15:12;23.10;59.60
27823;DHT22;29019;47.630;8.262;2023-08-06T23:19:12;23.10;59.40
27823;DHT22;29019;47.630;8.262;2023-08-06T23:23:13;23.10;59.40
27823;DHT22;29019;47.630;8.262;2023-08-06T23:27:13;23.10;59.50
27823;DHT22;29019;47.630;8.262;2023-08-06T23:31:14;23.00;59.40
27823;DHT22;29019;47.630;8.262;2023-08-06T23:35:15;23.00;59.50
27823;DHT22;29019;47.630;8.262;2023-08-06T23:39:15;23.00;59.60
27823;DHT22;29019;47.630;8.262;2023-08-06T23:43:16;23.00;59.60
27823;DHT22;29019;47.630;8.262;2023-08-06T23:47:16;23.00;59.60
27823;DHT22;29019;47.630;8.262;2023-08-06T23:51:17;22.90;59.50
27823;DHT22;29019;47.630;8.262;2023-08-06T23:55:17;22.90;59.40
27823;DHT22;29019;47.630;8.262;2023-08-06T23:59:18;23.00;59.40
